createdAt,value
2022-08-09T00:00:57.224Z,101292.28
2022-08-09T00:04:10.236Z,101298.63
2022-08-09T00:06:19.074Z,101294.03
2022-08-09T00:08:51.835Z,101295.06
2022-08-09T00:11:24.791Z,101301.06
2022-08-09T00:13:53.354Z,101300.41
2022-08-09T00:16:25.910Z,101297.84
2022-08-09T00:19:10.113Z,101290.94
2022-08-09T00:21:55.685Z,101295.00
2022-08-09T00:24:27.321Z,101293.94
2022-08-09T00:26:56.064Z,101281.00
2022-08-09T00:30:09.750Z,101285.88
2022-08-09T00:32:35.736Z,101296.81
2022-08-09T00:35:03.972Z,101293.03
2022-08-09T00:37:32.517Z,101289.50
2022-08-09T00:40:09.405Z,101290.84
2022-08-09T00:44:14.426Z,101294.06
2022-08-09T00:45:29.555Z,101296.84
2022-08-09T00:47:57.072Z,101289.66
2022-08-09T00:50:25.795Z,101286.81
2022-08-09T00:52:55.288Z,101293.56
2022-08-09T00:56:03.855Z,101285.63
2022-08-09T00:58:10.192Z,101278.47
2022-08-09T01:00:44.478Z,101282.53
2022-08-09T01:03:33.179Z,101282.69
2022-08-09T01:06:35.131Z,101284.19
2022-08-09T01:09:44.881Z,101279.41
2022-08-09T01:12:31.484Z,101281.09
2022-08-09T01:15:10.073Z,101281.38
2022-08-09T01:17:49.913Z,101288.59
2022-08-09T01:20:33.367Z,101284.13
2022-08-09T01:24:03.398Z,101285.97
2022-08-09T01:26:13.498Z,101287.06
2022-08-09T01:28:47.610Z,101288.72
2022-08-09T01:31:40.878Z,101278.88
2022-08-09T01:34:15.071Z,101293.13
2022-08-09T01:36:46.574Z,101287.06
2022-08-09T01:39:17.055Z,101291.47
2022-08-09T01:41:55.500Z,101292.94
2022-08-09T01:44:29.287Z,101291.41
2022-08-09T01:47:01.094Z,101293.53
2022-08-09T01:49:39.098Z,101293.56
2022-08-09T01:52:14.909Z,101299.78
2022-08-09T01:54:47.462Z,101295.22
2022-08-09T01:57:20.513Z,101296.56
2022-08-09T01:59:51.639Z,101301.22
2022-08-09T02:02:30.783Z,101295.22
2022-08-09T02:05:11.754Z,101302.31
2022-08-09T02:08:40.657Z,101305.84
2022-08-09T02:10:51.107Z,101308.66
2022-08-09T02:13:26.308Z,101299.50
2022-08-09T02:16:11.549Z,101307.53
2022-08-09T02:18:47.815Z,101311.53
2022-08-09T02:21:22.293Z,101306.28
2022-08-09T02:23:54.840Z,101306.78
2022-08-09T02:26:28.301Z,101312.72
2022-08-09T02:29:06.919Z,101315.03
2022-08-09T02:31:41.079Z,101300.56
2022-08-09T02:34:40.961Z,101313.19
2022-08-09T02:37:12.029Z,101310.63
2022-08-09T02:39:49.748Z,101308.09
2022-08-09T02:42:35.259Z,101309.97
2022-08-09T02:45:11.796Z,101318.69
2022-08-09T02:47:57.985Z,101309.78
2022-08-09T02:50:31.429Z,101320.59
2022-08-09T02:53:05.160Z,101312.13
2022-08-09T02:55:46.561Z,101321.00
2022-08-09T02:58:32.339Z,101319.34
2022-08-09T03:01:04.030Z,101322.66
2022-08-09T03:04:12.350Z,101320.66
2022-08-09T03:06:25.192Z,101325.25
2022-08-09T03:08:57.923Z,101323.69
2022-08-09T03:11:29.712Z,101333.00
2022-08-09T03:14:16.646Z,101336.81
2022-08-09T03:16:47.572Z,101326.44
2022-08-09T03:19:52.059Z,101329.22
2022-08-09T03:22:12.313Z,101332.16
2022-08-09T03:25:06.402Z,101330.66
2022-08-09T03:27:45.910Z,101323.94
2022-08-09T03:30:29.932Z,101333.00
2022-08-09T03:33:17.928Z,101345.28
2022-08-09T03:36:15.355Z,101334.13
2022-08-09T03:38:42.660Z,101338.38
2022-08-09T03:41:16.375Z,101336.72
2022-08-09T03:44:07.559Z,101338.78
2022-08-09T03:46:35.769Z,101333.16
2022-08-09T03:49:09.066Z,101333.13
2022-08-09T03:51:43.710Z,101343.19
2022-08-09T03:54:30.961Z,101336.13
2022-08-09T03:57:18.558Z,101329.81
2022-08-09T03:59:56.143Z,101333.97
2022-08-09T04:02:31.994Z,101333.38
2022-08-09T04:05:06.352Z,101339.78
2022-08-09T04:07:53.185Z,101329.78
2022-08-09T04:10:29.117Z,101337.78
2022-08-09T04:13:03.763Z,101340.91
2022-08-09T04:16:17.143Z,101333.44
2022-08-09T04:18:21.258Z,101336.25
2022-08-09T04:20:51.487Z,101334.38
2022-08-09T04:23:23.315Z,101339.19
2022-08-09T04:25:54.361Z,101340.06
2022-08-09T04:28:31.869Z,101348.47
2022-08-09T04:31:08.253Z,101353.91
2022-08-09T04:33:51.516Z,101357.22
2022-08-09T04:36:26.230Z,101349.56
2022-08-09T04:38:55.032Z,101353.91
2022-08-09T04:41:31.986Z,101351.22
2022-08-09T04:44:09.429Z,101351.22
2022-08-09T04:46:58.988Z,101341.94
2022-08-09T04:49:52.051Z,101342.00
2022-08-09T04:52:27.065Z,101346.66
2022-08-09T04:54:59.859Z,101344.06
2022-08-09T04:57:59.342Z,101341.50
2022-08-09T05:00:17.418Z,101339.50
2022-08-09T05:02:48.561Z,101347.50
2022-08-09T05:05:31.948Z,101345.91
2022-08-09T05:08:07.083Z,101340.44
2022-08-09T05:10:36.642Z,101343.56
2022-08-09T05:13:04.345Z,101343.88
2022-08-09T05:15:39.089Z,101343.97
2022-08-09T05:18:55.272Z,101341.28
2022-08-09T05:21:13.357Z,101342.53
2022-08-09T05:23:58.462Z,101338.72
2022-08-09T05:26:37.126Z,101343.13
2022-08-09T05:29:31.447Z,101344.72
2022-08-09T05:32:02.269Z,101345.88
2022-08-09T05:34:32.595Z,101351.38
2022-08-09T05:37:07.373Z,101339.28
2022-08-09T05:39:43.642Z,101343.13
2022-08-09T05:42:17.552Z,101339.09
2022-08-09T05:44:53.078Z,101338.00
2022-08-09T05:47:22.770Z,101337.44
2022-08-09T05:50:34.877Z,101333.13
2022-08-09T05:52:42.278Z,101330.09
2022-08-09T05:55:20.334Z,101328.47
2022-08-09T05:57:57.559Z,101327.16
2022-08-09T06:00:28.844Z,101330.78
2022-08-09T06:03:01.925Z,101323.16
2022-08-09T06:05:54.672Z,101318.78
2022-08-09T06:08:24.927Z,101318.84
2022-08-09T06:10:58.217Z,101325.75
2022-08-09T06:13:28.391Z,101323.03
2022-08-09T06:15:56.342Z,101331.59
2022-08-09T06:18:25.587Z,101319.53
2022-08-09T06:20:57.341Z,101321.47
2022-08-09T06:23:57.330Z,101318.50
2022-08-09T06:26:20.999Z,101316.41
2022-08-09T06:29:00.330Z,101318.06
2022-08-09T06:31:30.676Z,101316.13
2022-08-09T06:33:59.273Z,101320.03
2022-08-09T06:36:27.145Z,101317.56
2022-08-09T06:38:58.041Z,101317.59
2022-08-09T06:42:07.591Z,101310.41
2022-08-09T06:44:18.071Z,101311.22
2022-08-09T06:46:48.242Z,101313.72
2022-08-09T06:49:29.136Z,101311.47
2022-08-09T06:52:05.663Z,101307.03
2022-08-09T06:54:35.590Z,101313.69
2022-08-09T06:57:03.180Z,101309.22
2022-08-09T07:00:49.824Z,101307.53
2022-08-09T07:02:18.265Z,101312.69
2022-08-09T07:04:45.905Z,101316.81
2022-08-09T07:07:58.707Z,101315.34
2022-08-09T07:10:15.659Z,101316.09
2022-08-09T07:12:57.212Z,101315.16
2022-08-09T07:16:36.754Z,101313.75
2022-08-09T07:18:14.306Z,101313.41
2022-08-09T07:20:43.360Z,101325.22
2022-08-09T07:23:18.259Z,101319.09
2022-08-09T07:25:52.583Z,101312.63
2022-08-09T07:28:34.616Z,101315.56
2022-08-09T07:31:05.043Z,101316.81
2022-08-09T07:33:52.527Z,101310.97
2022-08-09T07:36:22.055Z,101310.84
2022-08-09T07:38:56.838Z,101308.00
2022-08-09T07:41:28.119Z,101305.59
2022-08-09T07:44:00.731Z,101305.75
2022-08-09T07:46:28.302Z,101299.81
2022-08-09T07:48:59.247Z,101308.16
2022-08-09T07:52:05.878Z,101307.66
2022-08-09T07:54:19.131Z,101306.91
2022-08-09T07:56:56.002Z,101299.50
2022-08-09T07:59:34.771Z,101297.63
2022-08-09T08:02:10.982Z,101302.31
2022-08-09T08:04:48.970Z,101301.88
2022-08-09T08:08:44.514Z,101298.59
2022-08-09T08:10:10.841Z,101300.31
2022-08-09T08:12:43.611Z,101293.50
2022-08-09T08:15:18.620Z,101295.63
2022-08-09T08:17:58.300Z,101297.88
2022-08-09T08:20:32.250Z,101300.44
2022-08-09T08:23:06.251Z,101302.22
2022-08-09T08:25:46.633Z,101298.38
2022-08-09T08:28:17.984Z,101296.13
2022-08-09T08:30:53.874Z,101294.97
2022-08-09T08:33:24.127Z,101296.38
2022-08-09T08:36:00.234Z,101300.38
2022-08-09T08:38:31.408Z,101296.47
2022-08-09T08:40:59.098Z,101296.72
2022-08-09T08:43:27.953Z,101291.94
2022-08-09T08:46:10.109Z,101299.03
2022-08-09T08:48:51.216Z,101300.94
2022-08-09T08:51:20.413Z,101301.06
2022-08-09T08:54:03.684Z,101303.41
2022-08-09T08:56:37.489Z,101295.22
2022-08-09T08:59:18.775Z,101295.50
2022-08-09T09:01:53.385Z,101289.16
2022-08-09T09:04:31.943Z,101283.66
2022-08-09T09:07:11.228Z,101285.19
2022-08-09T09:10:02.503Z,101281.13
2022-08-09T09:12:35.547Z,101276.41
2022-08-09T09:15:06.509Z,101272.81
2022-08-09T09:17:49.232Z,101277.91
2022-08-09T09:20:21.611Z,101275.59
2022-08-09T09:23:01.646Z,101273.16
2022-08-09T09:26:04.598Z,101272.97
2022-08-09T09:29:02.956Z,101269.16
2022-08-09T09:32:07.046Z,101265.38
2022-08-09T09:34:17.975Z,101275.06
2022-08-09T09:36:53.685Z,101266.69
2022-08-09T09:39:25.564Z,101268.94
2022-08-09T09:42:24.783Z,101264.84
2022-08-09T09:45:10.253Z,101253.47
2022-08-09T09:47:56.194Z,101255.69
2022-08-09T09:50:49.304Z,101252.34
2022-08-09T09:53:21.043Z,101251.38
2022-08-09T09:56:03.826Z,101257.13
2022-08-09T09:58:49.030Z,101246.16
2022-08-09T10:01:31.332Z,101256.22
2022-08-09T10:04:15.932Z,101242.03
2022-08-09T10:06:47.022Z,101247.97
2022-08-09T10:09:22.204Z,101249.75
2022-08-09T10:12:11.350Z,101247.75
2022-08-09T10:14:48.494Z,101260.03
2022-08-09T10:17:50.568Z,101249.59
2022-08-09T10:20:27.029Z,101251.78
2022-08-09T10:23:21.853Z,101256.22
2022-08-09T10:26:07.981Z,101255.31
2022-08-09T10:28:40.819Z,101249.72
2022-08-09T10:34:10.363Z,101246.91
2022-08-09T10:36:49.996Z,101235.78
2022-08-09T10:39:23.442Z,101238.03
2022-08-09T10:41:56.048Z,101241.09
2022-08-09T10:44:30.534Z,101220.72
2022-08-09T10:48:19.168Z,101228.22
2022-08-09T10:50:56.634Z,101217.81
2022-08-09T10:53:37.814Z,101221.50
2022-08-09T10:56:25.498Z,101219.75
2022-08-09T10:59:00.591Z,101222.28
2022-08-09T11:03:16.372Z,101213.31
2022-08-09T11:04:30.477Z,101204.81
2022-08-09T11:06:59.601Z,101209.97
2022-08-09T11:09:47.958Z,101209.97
2022-08-09T11:12:29.798Z,101216.53
2022-08-09T11:15:18.941Z,101210.44
2022-08-09T11:17:53.437Z,101205.06
2022-08-09T11:20:47.680Z,101204.97
2022-08-09T11:23:24.228Z,101202.66
2022-08-09T11:25:57.704Z,101202.03
2022-08-09T11:28:55.710Z,101205.06
2022-08-09T11:31:49.252Z,101194.91
2022-08-09T11:34:29.587Z,101185.44
2022-08-09T11:36:59.826Z,101185.91
2022-08-09T11:39:37.930Z,101190.09
2022-08-09T11:42:14.665Z,101183.88
2022-08-09T11:44:48.464Z,101179.78
2022-08-09T11:47:16.067Z,101177.25
2022-08-09T11:50:54.921Z,101169.78
2022-08-09T11:53:20.828Z,101173.72
2022-08-09T11:55:52.050Z,101173.38
2022-08-09T11:58:30.394Z,101175.34
2022-08-09T12:01:37.356Z,101167.03
2022-08-09T12:04:02.365Z,101168.19
2022-08-09T12:06:35.091Z,101169.59
2022-08-09T12:09:19.465Z,101165.88
2022-08-09T12:12:03.079Z,101165.94
2022-08-09T12:14:36.954Z,101164.19
2022-08-09T12:17:27.600Z,101168.44
2022-08-09T12:20:16.696Z,101163.78
2022-08-09T12:22:56.436Z,101162.13
2022-08-09T12:25:35.644Z,101156.31
2022-08-09T12:29:13.272Z,101159.06
2022-08-09T12:31:57.974Z,101155.00
2022-08-09T12:34:09.504Z,101154.66
2022-08-09T12:37:21.516Z,101151.03
2022-08-09T12:40:08.300Z,101155.59
2022-08-09T12:42:37.381Z,101154.28
2022-08-09T12:45:07.083Z,101151.50
2022-08-09T12:47:54.630Z,101148.47
2022-08-09T12:50:23.770Z,101158.56
2022-08-09T12:53:09.481Z,101150.34
2022-08-09T12:56:14.089Z,101155.06
2022-08-09T12:58:28.580Z,101157.22
2022-08-09T13:00:57.739Z,101149.91
2022-08-09T13:03:53.458Z,101148.13
2022-08-09T13:06:34.527Z,101149.00
2022-08-09T13:09:07.151Z,101146.56
2022-08-09T13:11:39.223Z,101143.22
2022-08-09T13:14:41.899Z,101141.06
2022-08-09T13:17:08.363Z,101138.81
2022-08-09T13:20:06.776Z,101151.28
2022-08-09T13:22:37.693Z,101139.38
2022-08-09T13:25:14.207Z,101146.63
2022-08-09T13:27:54.305Z,101144.00
2022-08-09T13:30:50.064Z,101139.59
2022-08-09T13:33:23.077Z,101137.63
2022-08-09T13:36:39.707Z,101131.59
2022-08-09T13:38:56.700Z,101136.78
2022-08-09T13:41:57.273Z,101132.19
2022-08-09T13:44:16.874Z,101130.88
2022-08-09T13:47:27.405Z,101130.38
2022-08-09T13:49:55.813Z,101130.22
2022-08-09T13:52:25.331Z,101129.31
2022-08-09T13:54:58.912Z,101131.94
2022-08-09T13:57:37.498Z,101123.38
2022-08-09T14:00:09.816Z,101124.56
2022-08-09T14:02:42.148Z,101123.78
2022-08-09T14:05:12.287Z,101116.44
2022-08-09T14:08:03.677Z,101114.03
2022-08-09T14:10:46.216Z,101117.03
2022-08-09T14:13:27.697Z,101112.59
2022-08-09T14:16:10.959Z,101115.00
2022-08-09T14:18:45.314Z,101112.75
2022-08-09T14:21:18.026Z,101115.31
2022-08-09T14:23:54.672Z,101116.25
2022-08-09T14:26:32.444Z,101112.47
2022-08-09T14:29:07.867Z,101115.22
2022-08-09T14:31:54.843Z,101106.84
2022-08-09T14:34:31.685Z,101116.84
2022-08-09T14:37:07.454Z,101109.97
2022-08-09T14:39:45.537Z,101111.91
2022-08-09T14:42:28.482Z,101107.59
2022-08-09T14:45:00.244Z,101111.16
2022-08-09T14:47:44.731Z,101105.59
2022-08-09T14:50:16.013Z,101108.59
2022-08-09T14:52:43.793Z,101103.25
2022-08-09T14:55:19.856Z,101107.03
2022-08-09T14:57:49.687Z,101103.59
2022-08-09T15:00:17.891Z,101109.22
2022-08-09T15:02:47.652Z,101107.25
2022-08-09T15:05:19.995Z,101112.53
2022-08-09T15:07:56.420Z,101105.84
2022-08-09T15:10:28.179Z,101102.38
2022-08-09T15:12:57.312Z,101102.88
2022-08-09T15:15:28.566Z,101098.28
2022-08-09T15:17:56.710Z,101097.75
2022-08-09T15:21:58.780Z,101099.53
2022-08-09T15:24:01.586Z,101098.06
2022-08-09T15:26:02.450Z,101094.63
2022-08-09T15:28:33.344Z,101102.78
2022-08-09T15:31:10.443Z,101096.50
2022-08-09T15:34:17.784Z,101095.19
2022-08-09T15:36:33.442Z,101095.94
2022-08-09T15:39:01.080Z,101092.84
2022-08-09T15:41:32.090Z,101104.28
2022-08-09T15:44:03.930Z,101099.78
2022-08-09T15:46:34.533Z,101092.72
2022-08-09T15:49:20.721Z,101097.28
2022-08-09T15:52:03.580Z,101092.03
2022-08-09T15:54:44.756Z,101091.31
2022-08-09T15:57:18.985Z,101094.94
2022-08-09T16:00:01.533Z,101096.53
2022-08-09T16:02:29.290Z,101103.81
2022-08-09T16:04:56.697Z,101106.56
2022-08-09T16:07:25.839Z,101097.50
2022-08-09T16:10:04.514Z,101096.94
2022-08-09T16:12:33.376Z,101096.88
2022-08-09T16:15:04.923Z,101098.44
2022-08-09T16:17:52.633Z,101108.53
2022-08-09T16:20:20.112Z,101095.69
2022-08-09T16:22:57.858Z,101099.41
2022-08-09T16:25:36.957Z,101104.09
2022-08-09T16:28:12.191Z,101098.72
2022-08-09T16:30:44.357Z,101102.03
2022-08-09T16:33:15.832Z,101102.66
2022-08-09T16:35:56.379Z,101102.97
2022-08-09T16:38:26.028Z,101105.47
2022-08-09T16:40:53.564Z,101103.00
2022-08-09T16:43:23.065Z,101109.88
2022-08-09T16:45:53.589Z,101102.59
2022-08-09T16:48:42.196Z,101104.78
2022-08-09T16:51:14.247Z,101102.47
2022-08-09T16:54:16.021Z,101104.53
2022-08-09T16:56:31.653Z,101102.91
2022-08-09T16:59:01.543Z,101105.88
2022-08-09T17:01:35.742Z,101104.72
2022-08-09T17:08:41.036Z,101111.94
2022-08-09T17:09:46.010Z,101111.94
2022-08-09T17:12:16.220Z,101115.94
2022-08-09T17:14:48.028Z,101112.22
2022-08-09T17:17:27.223Z,101117.97
2022-08-09T17:20:29.798Z,101117.66
2022-08-09T17:22:50.183Z,101116.03
2022-08-09T17:25:20.120Z,101118.41
2022-08-09T17:27:54.711Z,101116.53
2022-08-09T17:30:25.693Z,101121.97
2022-08-09T17:33:00.678Z,101122.25
2022-08-09T17:35:36.075Z,101124.72
2022-08-09T17:38:14.510Z,101116.31
2022-08-09T17:40:57.251Z,101120.13
2022-08-09T17:43:34.455Z,101120.84
2022-08-09T17:46:09.110Z,101117.09
2022-08-09T17:48:51.573Z,101125.88
2022-08-09T17:51:21.086Z,101124.75
2022-08-09T17:53:51.895Z,101130.44
2022-08-09T17:56:27.039Z,101132.81
2022-08-09T17:59:09.499Z,101130.66
2022-08-09T18:02:06.770Z,101134.00
2022-08-09T18:04:28.216Z,101132.75
2022-08-09T18:06:56.026Z,101133.03
2022-08-09T18:09:35.889Z,101134.84
2022-08-09T18:12:20.340Z,101135.66
2022-08-09T18:14:54.469Z,101136.19
2022-08-09T18:17:27.665Z,101147.00
2022-08-09T18:21:00.343Z,101136.03
2022-08-09T18:23:05.204Z,101143.50
2022-08-09T18:25:53.100Z,101139.22
2022-08-09T18:30:42.913Z,101137.66
2022-08-09T18:31:13.199Z,101141.78
2022-08-09T18:33:40.839Z,101146.56
2022-08-09T18:36:14.306Z,101137.75
2022-08-09T18:38:56.093Z,101140.72
2022-08-09T18:41:28.522Z,101138.13
2022-08-09T18:43:56.061Z,101134.25
2022-08-09T18:46:49.542Z,101137.78
2022-08-09T18:49:11.006Z,101141.38
2022-08-09T18:51:57.697Z,101137.28
2022-08-09T18:54:28.406Z,101131.53
2022-08-09T18:57:06.205Z,101131.06
2022-08-09T18:59:37.303Z,101135.59
2022-08-09T19:02:16.805Z,101133.47
2022-08-09T19:04:48.031Z,101138.50
2022-08-09T19:07:32.501Z,101143.56
2022-08-09T19:10:13.944Z,101133.63
2022-08-09T19:12:45.583Z,101138.31
2022-08-09T19:15:22.951Z,101134.94
2022-08-09T19:17:54.833Z,101136.97
2022-08-09T19:20:24.182Z,101136.38
2022-08-09T19:22:54.709Z,101137.47
2022-08-09T19:25:41.854Z,101135.31
2022-08-09T19:28:13.065Z,101129.84
2022-08-09T19:30:44.344Z,101133.22
2022-08-09T19:33:19.333Z,101132.72
2022-08-09T19:35:58.083Z,101136.91
2022-08-09T19:38:27.752Z,101136.59
2022-08-09T19:40:59.811Z,101137.72
2022-08-09T19:44:00.500Z,101130.56
2022-08-09T19:46:35.253Z,101136.97
2022-08-09T19:50:08.795Z,101137.25
2022-08-09T19:51:57.009Z,101133.19
2022-08-09T19:54:25.621Z,101132.09
2022-08-09T19:56:54.770Z,101124.28
2022-08-09T19:59:58.442Z,101127.63
2022-08-09T20:02:17.325Z,101130.09
2022-08-09T20:05:01.435Z,101127.88
2022-08-09T20:07:56.931Z,101135.09
2022-08-09T20:10:22.457Z,101137.09
2022-08-09T20:13:02.528Z,101129.09
2022-08-09T20:16:35.537Z,101135.72
2022-08-09T20:18:22.351Z,101126.88
2022-08-09T20:20:51.529Z,101136.28
2022-08-09T20:23:23.800Z,101132.41
2022-08-09T20:25:53.528Z,101133.25
2022-08-09T20:28:27.505Z,101130.53
2022-08-09T20:31:05.418Z,101133.31
2022-08-09T20:33:38.952Z,101128.03
2022-08-09T20:36:09.417Z,101127.19
2022-08-09T20:39:18.646Z,101125.88
2022-08-09T20:41:35.199Z,101123.53
2022-08-09T20:44:10.582Z,101123.81
2022-08-09T20:46:44.721Z,101123.81
2022-08-09T20:49:15.703Z,101126.03
2022-08-09T20:51:44.487Z,101116.69
2022-08-09T20:54:18.244Z,101122.78
2022-08-09T20:56:53.405Z,101116.72
2022-08-09T20:59:49.988Z,101116.72
2022-08-09T21:02:18.666Z,101112.31
2022-08-09T21:05:53.039Z,101116.16
2022-08-09T21:07:38.819Z,101112.34
2022-08-09T21:10:11.527Z,101119.47
2022-08-09T21:12:39.599Z,101114.50
2022-08-09T21:15:12.782Z,101111.50
2022-08-09T21:18:22.258Z,101107.09
2022-08-09T21:20:30.876Z,101121.44
2022-08-09T21:23:00.596Z,101112.31
2022-08-09T21:25:56.244Z,101115.59
2022-08-09T21:28:36.379Z,101108.44
2022-08-09T21:31:16.781Z,101113.97
2022-08-09T21:33:52.721Z,101109.53
2022-08-09T21:36:27.964Z,101105.41
2022-08-09T21:38:59.661Z,101100.16
2022-08-09T21:42:04.826Z,101097.44
2022-08-09T21:44:33.868Z,101105.19
2022-08-09T21:47:08.465Z,101099.63
2022-08-09T21:49:39.722Z,101093.56
2022-08-09T21:52:14.992Z,101095.78
2022-08-09T21:55:03.085Z,101097.16
2022-08-09T21:57:38.763Z,101099.63
2022-08-09T22:00:26.869Z,101099.91
2022-08-09T22:03:05.563Z,101103.72
2022-08-09T22:05:41.701Z,101100.41
2022-08-09T22:08:14.735Z,101108.72
2022-08-09T22:11:05.201Z,101107.91
2022-08-09T22:13:34.520Z,101103.50
2022-08-09T22:16:08.583Z,101104.59
2022-08-09T22:18:52.880Z,101102.38
2022-08-09T22:21:27.363Z,101105.13
2022-08-09T22:24:16.991Z,101104.53
2022-08-09T22:26:50.976Z,101107.59
2022-08-09T22:29:21.295Z,101100.97
2022-08-09T22:31:57.327Z,101106.16
2022-08-09T22:34:26.828Z,101099.44
2022-08-09T22:36:58.741Z,101099.75
2022-08-09T22:39:55.654Z,101102.75
2022-08-09T22:42:21.465Z,101088.97
2022-08-09T22:48:05.000Z,101080.13
2022-08-09T22:48:11.470Z,101084.25
2022-08-09T22:50:31.563Z,101086.16
2022-08-09T22:53:03.647Z,101080.09
2022-08-09T22:56:06.437Z,101075.59
2022-08-09T22:58:32.307Z,101085.84
2022-08-09T23:01:02.715Z,101076.28
2022-08-09T23:04:03.294Z,101077.66
2022-08-09T23:06:35.859Z,101075.78
2022-08-09T23:09:06.433Z,101078.00
2022-08-09T23:11:34.020Z,101074.47
2022-08-09T23:14:03.243Z,101073.28
2022-08-09T23:16:31.749Z,101075.81
2022-08-09T23:19:00.322Z,101060.34
2022-08-09T23:21:32.838Z,101062.28
2022-08-09T23:24:06.520Z,101064.22
2022-08-09T23:26:36.503Z,101065.81
2022-08-09T23:29:05.924Z,101070.78
2022-08-09T23:31:33.513Z,101070.72
2022-08-09T23:34:02.609Z,101067.41
2022-08-09T23:36:33.926Z,101059.00
2022-08-09T23:39:02.336Z,101057.44
2022-08-09T23:41:30.077Z,101057.91
2022-08-09T23:43:59.845Z,101061.16
2022-08-09T23:46:29.355Z,101062.03
2022-08-09T23:48:58.262Z,101053.72
2022-08-09T23:51:26.509Z,101060.31
2022-08-09T23:53:55.213Z,101058.69
2022-08-09T23:56:53.647Z,101064.22
2022-08-09T23:59:13.698Z,101065.41
